createdAt,value
2024-02-14T00:02:08.067Z,23.2
2024-02-14T00:07:47.400Z,22.8
2024-02-14T00:12:55.397Z,24.7
2024-02-14T00:18:19.069Z,26.7
2024-02-14T00:23:42.976Z,24.7
2024-02-14T00:29:22.257Z,25
2024-02-14T00:34:48.359Z,24.5
2024-02-14T00:40:27.524Z,24.4
2024-02-14T00:45:35.697Z,23.9
2024-02-14T00:51:17.174Z,23.9
2024-02-14T00:56:55.810Z,23.4
2024-02-14T01:02:35.153Z,23.4
2024-02-14T01:08:14.940Z,22.9
2024-02-14T01:13:54.198Z,23.1
2024-02-14T01:19:18.979Z,25.4
2024-02-14T08:12:30.102Z,23.1
2024-02-14T08:17:57.190Z,23.1
2024-02-14T08:23:26.694Z,22.6
2024-02-14T08:29:06.013Z,22.6
2024-02-14T08:34:46.502Z,22.1
2024-02-14T08:40:32.530Z,23.2
2024-02-14T08:46:12.813Z,25.1
2024-02-14T08:51:57.589Z,23.6
2024-02-14T08:57:41.108Z,23.9
2024-02-14T09:03:36.242Z,23.6
2024-02-14T09:09:16.329Z,23.6
2024-02-14T09:14:55.428Z,23
2024-02-14T09:20:36.730Z,22.9
2024-02-14T09:26:16.240Z,22.4
2024-02-14T09:32:09.180Z,23.4
2024-02-14T09:37:35.776Z,25.3
2024-02-14T09:43:15.331Z,23.4
2024-02-14T09:48:59.246Z,23.9
2024-02-14T09:54:39.291Z,23.6
2024-02-14T10:00:19.589Z,23.5
2024-02-14T10:05:59.386Z,23
2024-02-14T10:11:52.534Z,22.9
2024-02-14T10:17:17.973Z,22.4
2024-02-14T10:22:58.747Z,23.1
2024-02-14T10:28:43.486Z,24.9
2024-02-14T10:34:37.418Z,23.5
2024-02-14T10:40:17.076Z,23.2
2024-02-14T10:45:59.463Z,23.6
2024-02-14T10:51:39.706Z,23.1
2024-02-14T10:57:18.635Z,23.1
2024-02-14T11:02:59.152Z,22.8
2024-02-14T11:08:23.573Z,22.5
2024-02-14T11:14:04.253Z,22.5
2024-02-14T11:19:44.906Z,24.2
2024-02-14T11:25:26.027Z,23.9
2024-02-14T11:31:19.777Z,23.1
2024-02-14T11:37:01.138Z,23.7
2024-02-14T11:42:43.117Z,23.2
2024-02-14T11:48:21.959Z,22.6
2024-02-14T11:54:04.784Z,23.1
2024-02-14T11:59:43.851Z,24.6
2024-02-14T12:05:24.397Z,23.4
2024-02-14T12:11:05.131Z,23.1
2024-02-14T12:16:45.287Z,23.6
2024-02-14T12:22:24.981Z,23.1
2024-02-14T12:28:04.501Z,22.6
2024-02-14T12:33:48.932Z,22.1
2024-02-14T12:39:31.216Z,24
2024-02-14T12:45:10.427Z,24.8
2024-02-14T12:50:50.420Z,23.1
2024-02-14T12:56:28.739Z,22.9
2024-02-14T13:02:08.638Z,22.6
2024-02-14T13:07:48.536Z,22.3
2024-02-14T13:13:27.901Z,21.9
2024-02-14T13:19:08.715Z,23
2024-02-14T13:24:48.510Z,24.9
2024-02-14T13:30:11.138Z,23.2
2024-02-14T13:35:52.346Z,23
2024-02-14T13:41:30.677Z,22.8
2024-02-14T13:47:12.192Z,22.4
2024-02-14T13:52:54.609Z,22.1
2024-02-14T13:58:34.592Z,21.8
2024-02-14T14:04:12.360Z,23.8
2024-02-14T14:10:08.673Z,25.4
2024-02-14T14:15:49.849Z,23
2024-02-14T14:21:31.552Z,22.9
2024-02-14T14:27:13.003Z,22.6
2024-02-14T14:32:56.135Z,22.1
2024-02-14T14:38:38.988Z,21.8
2024-02-14T14:44:21.424Z,21.4
2024-02-14T14:49:48.594Z,21
2024-02-14T14:55:31.440Z,20.7
2024-02-14T15:01:13.783Z,20.4
2024-02-14T15:06:38.264Z,20.1
2024-02-14T15:12:19.354Z,19.8
2024-02-14T15:18:00.857Z,19.5
2024-02-14T15:23:44.023Z,19.2
2024-02-14T15:29:23.115Z,18.9
2024-02-14T15:35:03.575Z,18.8
2024-02-14T15:40:42.993Z,18.6
2024-02-14T15:51:30.909Z,18.2
2024-02-14T15:57:10.053Z,18.1
2024-02-14T16:02:49.093Z,18.1
2024-02-14T16:08:28.980Z,18.3
2024-02-14T16:14:07.332Z,18.8
2024-02-14T16:19:48.137Z,19.1
2024-02-14T16:25:43.252Z,19.4
2024-02-14T16:31:22.038Z,19.8
2024-02-14T16:37:02.325Z,19.9
2024-02-14T16:42:56.274Z,19.9
2024-02-14T16:48:38.512Z,19.9
2024-02-14T16:54:21.482Z,19.8
2024-02-14T17:00:03.992Z,19.7
2024-02-14T17:05:40.678Z,19.6
2024-02-14T17:11:22.326Z,19.5
2024-02-14T17:16:49.701Z,19.4
2024-02-14T17:22:39.505Z,19.4
2024-02-14T17:28:18.141Z,19.3
2024-02-14T17:34:10.771Z,19.3
2024-02-14T17:39:50.426Z,19.1
2024-02-14T17:45:13.415Z,19.1
2024-02-14T17:50:53.330Z,18.9
2024-02-14T17:56:32.374Z,18.8
2024-02-14T18:02:11.324Z,18.6
2024-02-14T18:07:38.241Z,18.6
2024-02-14T18:13:19.364Z,18.4
2024-02-14T18:18:42.627Z,18.3
2024-02-14T18:24:23.497Z,18.2
2024-02-14T18:30:02.062Z,18.1
2024-02-14T18:35:28.917Z,18
2024-02-14T18:41:08.402Z,17.9
2024-02-14T18:46:46.505Z,17.9
2024-02-14T18:52:26.188Z,17.9
2024-02-14T18:58:05.001Z,17.9
2024-02-14T19:03:45.827Z,17.8
2024-02-14T19:09:25.126Z,17.8
2024-02-14T19:15:03.754Z,17.8
2024-02-14T19:20:57.011Z,17.8
2024-02-14T19:26:35.862Z,17.8
2024-02-14T19:32:15.098Z,17.8
